METAR Data
IDs: Format: Raw Decoded Include TAF

Data at: 0737 UTC 18 Nov 2018

PFCL 180731Z AUTO 19005KT 10SM -RA BKN005 OVC010 04/04 A2933 RMK AO2 P0001 TSNO
PFCL 180716Z AUTO 19004KT 10SM -RA SCT005 BKN010 OVC041 04/04 A2932 RMK AO2 CIG 007V011 P0001 TSNO
PFCL 180656Z AUTO 18005KT 10SM -RA FEW008 BKN024 OVC039 04/04 A2932 RMK AO2 RAE22B41 SLP921 P0000 T00440044 TSNO
PFCL 180641Z AUTO 18006KT 10SM -RA SCT006 OVC023 04/04 A2931 RMK AO2 RAE22B41 P0000 TSNO
PFCL 180603Z AUTO 15006KT 3SM -RA BR BKN008 BKN011 OVC035 05/05 A2930 RMK AO2 CIG 005V008 P0000 TSNO
PFCL 180600Z AUTO 16005KT 2 1/2SM -RA BR BKN008 OVC035 05/05 A2930 RMK AO2 CIG 005V012 P0000 TSNO
PFCL 180555Z AUTO 14005KT 1 3/4SM -RA BR BKN010 OVC035 05/05 A2930 RMK AO2 RAE28B46 CIG 008V012 SLP916 P0001 60022 T00500050 10061 20050 53004 TSNO
PFCL 180554Z AUTO 14005KT 1 3/4SM -RA BR SCT010 BKN025 OVC035 05/05 A2930 RMK AO2 RAE28B46 P0001 TSNO
PFCL 180544Z AUTO 13005KT 2 1/2SM BR FEW012 SCT025 OVC035 05/05 A2930 RMK AO2 RAE28 P0001 TSNO
PFCL 180533Z AUTO 13005KT 4SM BR FEW004 BKN026 OVC035 05/05 A2930 RMK AO2 RAE28 P0001 TSNO
PFCL 180526Z AUTO 14005KT 3SM -RA BR FEW004 BKN007 OVC026 05/05 A2930 RMK AO2 CIG 004V011 P0001 TSNO
PFCL 180503Z AUTO 15003KT 2 1/2SM -RA BR OVC004 05/05 A2930 RMK AO2 CIG 003V006 P0000 TSNO
PFCL 180451Z AUTO 13003KT 3SM -RA BR OVC004 05/05 A2930 RMK AO2 CIG 003V007 P0002 TSNO
PFCL 180441Z AUTO 14003KT 2 1/2SM -RA BR OVC004 05/05 A2929 RMK AO2 CIG 003V008 P0002 TSNO
PFCL 180417Z AUTO 12004KT 10SM -RA BKN004 OVC010 05/05 A2929 RMK AO2 CIG 003V008 P0001 TSNO
PFCL 180405Z AUTO 13004KT 10SM -RA BKN006 OVC012 06/06 A2929 RMK AO2 CIG 005V009 P0001 TSNO
PFCL 180356Z AUTO 12005KT 9SM -RA BKN010 OVC015 06/06 A2929 RMK AO2 RAE04B39 CIG 007V014 SLP912 P0002 T00560056 TSNO
PFCL 180305Z AUTO 11008KT 7SM OVC005 06/06 A2929 RMK AO2 RAE04 CIG 003V007 P0000 TSNO
PFCL 180256Z AUTO 11006KT 7SM -RA OVC007 06/06 A2929 RMK AO2 CIG 003V008 SLP912 P0001 60017 T00560056 55003 TSNO
PFCL 180156Z AUTO 12010KT 10SM -RA OVC009 06/06 A2928 RMK AO2 CIG 004V011 SLP910 P0008 T00560056 TSNO
PFCL 180056Z AUTO 10007KT 5SM -RA BR BKN008 OVC011 06/06 A2929 RMK AO2 CIG 004V010 SLP911 P0008 T00560056 TSNO
PFCL 180032Z AUTO 11009KT 7SM -RA BKN006 OVC013 06/06 A2929 RMK AO2 CIG 004V009 P0004 TSNO
PFCL 180022Z AUTO 10011KT 7SM -RA SCT006 BKN010 OVC016 06/06 A2929 RMK AO2 CIG 007V012 P0003 TSNO
PFCL 172256Z AUTO 10011KT 10SM -RA OVC008 06/06 A2931 RMK AO2 CIG 006V012 SLP919 P0008 T00560056 TSNO
PFCL 172156Z AUTO 09010KT 9SM -RA OVC009 05/05 A2933 RMK AO2 CIG 008V011 SLP926 P0009 T00500050 TSNO
PFCL 172154Z AUTO 09011KT 10SM -RA OVC009 05/05 A2933 RMK AO2 CIG 008V012 P0008 TSNO
PFCL 172113Z AUTO 08011KT 7SM -RA OVC013 04/04 A2934 RMK AO2 P0002 TSNO
PFCL 172056Z AUTO 08010KT 6SM -RA BR OVC015 04/04 A2934 RMK AO2 SLP929 P0006 60012 T00440044 56009 TSNO
PFCL 172018Z AUTO 07008G15KT 9SM -RA FEW007 OVC015 04/04 A2935 RMK AO2 P0001 TSNO
PFCL 172009Z AUTO 07010KT 10SM -RA SCT007 OVC013 04/04 A2935 RMK AO2 P0000 TSNO
PFCL 171956Z AUTO 07011KT 7SM -RA BKN007 OVC013 04/04 A2935 RMK AO2 CIG 004V010 SLP933 P0005 T00440039 TSNO
PFCL 171952Z AUTO 06011KT 8SM -RA BKN007 OVC013 04/04 A2935 RMK AO2 CIG 004V010 P0004 TSNO
PFCL 171944Z AUTO 07007KT 10SM -RA BKN005 BKN009 OVC013 04/04 A2936 RMK AO2 P0004 TSNO
PFCL 171856Z AUTO 06010KT 4SM -RA BR FEW005 OVC014 04/04 A2937 RMK AO2 SLP939 P0001 T00390039 TSNO
PFCL 171847Z AUTO 06011KT 3SM -RA BR FEW005 OVC014 04/04 A2937 RMK AO2 P0000 TSNO
PFCL 171809Z AUTO 06007KT 10SM -RA OVC014 04/04 A2938 RMK AO2 P0000 TSNO
PFCL 171756Z AUTO 06006KT 10SM -RA OVC016 04/04 A2938 RMK AO2 SLP941 P0001 60004 T00390039 10039 20033 58012 TSNO
PFCL 171656Z AUTO 05007KT 10SM -RA OVC018 03/03 A2939 RMK AO2 SLP945 P0001 T00330033 TSNO
PFCL 171639Z AUTO 06007KT 10SM -RA OVC016 03/03 A2939 RMK AO2 P0000 TSNO
PFCL 171556Z AUTO 06007KT 4SM -RA BR OVC013 03/03 A2940 RMK AO2 RAB1459E17B35 SLP950 P0001 T00330033 TSNO
PFCL 171351Z AUTO 07007KT 5SM -RA BR FEW008 OVC013 04/03 A2943 RMK AO2 P0001 TSNO
PFCL 171256Z AUTO 05007KT 9SM -RA BKN015 OVC022 04/03 A2945 RMK AO2 RAB40 SLP965 P0000 T00390033 TSNO
PFCL 171156Z AUTO 06005KT 10SM OVC028 04/03 A2946 RMK AO2 SLP970 60000 70003 T00390033 10050 20033 56015 TSNO
PFCL 171121Z AUTO 04005KT 10SM OVC030 03/03 A2947 RMK AO2 TSNO
PFCL 171056Z AUTO 03004KT 10SM BKN028 OVC033 03/03 A2948 RMK AO2 SLP975 T00330028 TSNO
PFCL 171025Z AUTO 03005KT 10SM OVC028 04/03 A2948 RMK AO2 TSNO
PFCL 171015Z AUTO 05006KT 10SM FEW019 OVC030 04/03 A2948 RMK AO2 TSNO
PFCL 170956Z AUTO 05005KT 10SM BKN017 OVC025 03/03 A2949 RMK AO2 RAE17 SLP978 P0000 T00330033 TSNO
PFCL 170856Z AUTO 01004KT 8SM -RA OVC025 04/03 A2950 RMK AO2 RAB40 SLP984 P0000 60000 T00390028 400610017 55008 TSNO
PFCL 170756Z AUTO 05007KT 10SM OVC029 05/03 A2950 RMK AO2 SLP984 T00500028 TSNO
PFCL 170656Z AUTO 06005KT 10SM OVC029 04/03 A2952 RMK AO2 SLP989 T00440028 TSNO
PFCL 170612Z AUTO 03005KT 10SM OVC029 04/03 A2952 RMK AO2 TSNO
PFCL 170556Z AUTO 04005KT 10SM OVC031 05/03 A2953 RMK AO2 SLP993 T00500033 10061 20044 56012 TSNO
PFCL 170456Z AUTO 04007KT 10SM OVC033 04/03 A2953 RMK AO2 SLP995 T00440033 TSNO
PFCL 170256Z AUTO 04005KT 10SM BKN030 BKN036 OVC049 06/04 A2956 RMK AO2 SLP005 T00560039 56015 TSNO
PFCL 170156Z AUTO 07009KT 10SM OVC038 06/04 A2958 RMK AO2 SLP010 T00560044 TSNO
PFCL 170056Z AUTO 07009KT 10SM BKN033 OVC045 06/04 A2959 RMK AO2 SLP013 T00610044 TSNO
PFCL 162356Z AUTO 07013KT 10SM OVC039 06/04 A2961 RMK AO2 SLP019 T00610039 10061 20022 58019 TSNO
PFCL 162256Z AUTO 05009KT 10SM BKN037 OVC045 06/03 A2962 RMK AO2 SLP025 T00610033 TSNO
PFCL 162156Z AUTO 05008KT 10SM OVC039 06/03 A2965 RMK AO2 SLP033 T00560033 TSNO
PFCL 162056Z AUTO 05007KT 10SM OVC041 05/03 A2966 RMK AO2 SLP038 T00500033 58010 TSNO
PFCL 161956Z AUTO 03008KT 10SM OVC037 03/03 A2967 RMK AO2 SLP041 T00330028 TSNO